createdAt,value
2023-03-29T00:00:30.488Z,56.10
2023-03-29T00:02:57.624Z,56.78
2023-03-29T00:05:25.546Z,57.51
2023-03-29T00:07:54.474Z,56.67
2023-03-29T00:10:24.176Z,56.77
2023-03-29T00:12:52.739Z,58.43
2023-03-29T00:15:20.645Z,58.44
2023-03-29T00:17:47.774Z,57.02
2023-03-29T00:20:14.845Z,57.77
2023-03-29T00:22:44.634Z,56.89
2023-03-29T00:25:12.161Z,55.83
2023-03-29T00:27:39.935Z,56.23
2023-03-29T00:30:09.084Z,55.27
2023-03-29T00:32:36.805Z,54.67
2023-03-29T00:35:06.105Z,55.16
2023-03-29T00:37:33.799Z,54.86
2023-03-29T00:40:00.929Z,56.68
2023-03-29T00:42:28.084Z,56.18
2023-03-29T00:45:20.695Z,55.31
2023-03-29T00:47:55.747Z,55.99
2023-03-29T00:50:26.456Z,56.03
2023-03-29T00:53:03.716Z,55.37
2023-03-29T00:55:39.396Z,56.52
2023-03-29T00:58:10.108Z,56.11
2023-03-29T01:00:40.400Z,56.45
2023-03-29T01:03:13.981Z,55.51
2023-03-29T01:05:49.259Z,56.21
2023-03-29T01:08:27.752Z,56.74
2023-03-29T01:11:05.995Z,56.48
2023-03-29T01:13:54.480Z,56.00
2023-03-29T01:16:28.789Z,55.26
2023-03-29T01:18:58.601Z,55.77
2023-03-29T01:21:32.460Z,57.02
2023-03-29T01:24:18.272Z,56.63
2023-03-29T01:26:59.818Z,55.40
2023-03-29T01:29:48.113Z,55.90
2023-03-29T01:32:16.947Z,55.50
2023-03-29T01:34:59.155Z,55.37
2023-03-29T01:37:36.485Z,55.20
2023-03-29T01:40:06.258Z,53.13
2023-03-29T01:42:54.594Z,56.15
2023-03-29T01:45:50.526Z,54.25
2023-03-29T01:48:32.870Z,54.79
2023-03-29T01:51:07.543Z,54.26
2023-03-29T01:53:54.172Z,54.44
2023-03-29T01:56:25.001Z,54.91
2023-03-29T01:59:06.510Z,54.65
2023-03-29T02:01:38.634Z,53.85
2023-03-29T02:04:13.405Z,53.40
2023-03-29T02:06:42.228Z,54.45
2023-03-29T02:09:09.932Z,53.53
2023-03-29T02:11:38.062Z,54.11
2023-03-29T02:14:05.681Z,55.30
2023-03-29T02:16:39.339Z,55.89
2023-03-29T02:19:08.104Z,55.70
2023-03-29T02:22:07.349Z,56.83
2023-03-29T02:24:37.317Z,53.51
2023-03-29T02:27:07.845Z,52.72
2023-03-29T02:29:34.927Z,54.61
2023-03-29T02:32:20.616Z,54.86
2023-03-29T02:35:38.577Z,53.45
2023-03-29T02:38:11.525Z,50.02
2023-03-29T02:40:42.033Z,52.25
2023-03-29T02:43:11.445Z,52.08
2023-03-29T02:45:41.348Z,53.20
2023-03-29T02:48:13.765Z,53.07
2023-03-29T02:50:43.147Z,52.45
2023-03-29T02:53:17.155Z,53.35
2023-03-29T02:55:47.062Z,52.76
2023-03-29T02:58:15.692Z,52.67
2023-03-29T03:00:46.591Z,52.30
2023-03-29T03:03:15.674Z,53.53
2023-03-29T03:05:45.278Z,52.26
2023-03-29T03:08:12.416Z,51.41
2023-03-29T03:10:40.017Z,51.93
2023-03-29T03:13:07.382Z,51.24
2023-03-29T03:15:37.517Z,52.88
2023-03-29T03:18:04.825Z,53.40
2023-03-29T03:20:32.661Z,51.33
2023-03-29T03:23:01.289Z,53.47
2023-03-29T03:25:28.806Z,53.57
2023-03-29T03:27:56.348Z,52.85
2023-03-29T03:30:25.673Z,54.09
2023-03-29T03:32:55.701Z,51.81
2023-03-29T03:35:48.783Z,54.12
2023-03-29T03:38:17.299Z,54.50
2023-03-29T03:40:54.988Z,54.94
2023-03-29T03:43:22.671Z,54.89
2023-03-29T03:45:51.188Z,54.32
2023-03-29T03:48:23.191Z,55.02
2023-03-29T03:51:06.123Z,55.06
2023-03-29T03:53:35.322Z,53.33
2023-03-29T03:56:15.480Z,54.84
2023-03-29T03:59:01.363Z,54.46
2023-03-29T04:01:34.198Z,53.29
2023-03-29T04:04:14.834Z,55.42
2023-03-29T04:06:53.233Z,55.30
2023-03-29T04:09:20.902Z,54.69
2023-03-29T04:11:56.135Z,56.48
2023-03-29T04:14:23.221Z,53.75
2023-03-29T04:17:09.004Z,54.63
2023-03-29T04:19:49.866Z,55.40
2023-03-29T04:22:17.032Z,55.27
2023-03-29T04:24:43.990Z,54.76
2023-03-29T04:27:37.287Z,54.59
2023-03-29T04:30:11.244Z,52.77
2023-03-29T04:33:01.544Z,54.51
2023-03-29T04:35:28.667Z,53.88
2023-03-29T04:37:55.774Z,55.20
2023-03-29T04:40:23.968Z,56.02
2023-03-29T04:43:07.845Z,55.92
2023-03-29T04:45:37.053Z,54.41
2023-03-29T04:48:11.649Z,55.98
2023-03-29T04:50:41.869Z,55.13
2023-03-29T04:53:08.894Z,54.59
2023-03-29T04:55:35.892Z,55.07
2023-03-29T04:58:03.025Z,53.90
2023-03-29T05:00:32.255Z,54.00
2023-03-29T05:03:02.124Z,55.15
2023-03-29T05:05:32.490Z,54.97
2023-03-29T05:08:01.921Z,56.05
2023-03-29T05:10:37.557Z,54.82
2023-03-29T05:13:04.590Z,55.33
2023-03-29T05:15:32.353Z,52.43
2023-03-29T05:18:00.961Z,53.89
2023-03-29T05:20:28.726Z,54.98
2023-03-29T05:22:57.364Z,53.33
2023-03-29T05:25:51.653Z,52.40
2023-03-29T05:28:19.316Z,53.30
2023-03-29T05:30:46.877Z,53.23
2023-03-29T05:33:19.678Z,54.93
2023-03-29T05:35:46.919Z,54.83
2023-03-29T05:38:13.976Z,53.26
2023-03-29T05:40:41.643Z,54.67
2023-03-29T05:43:17.485Z,55.54
2023-03-29T05:45:45.571Z,52.70
2023-03-29T05:48:13.608Z,53.73
2023-03-29T05:50:47.413Z,50.44
2023-03-29T05:53:16.492Z,50.42
2023-03-29T05:55:44.259Z,52.28
2023-03-29T05:58:14.568Z,52.58
2023-03-29T06:00:43.077Z,53.27
2023-03-29T06:03:28.410Z,53.29
2023-03-29T06:06:00.726Z,54.89
2023-03-29T06:08:29.041Z,53.93
2023-03-29T06:11:09.316Z,53.87
2023-03-29T06:13:55.995Z,51.90
2023-03-29T06:16:23.485Z,50.80
2023-03-29T06:18:50.847Z,51.85
2023-03-29T06:21:18.056Z,52.71
2023-03-29T06:23:45.448Z,51.98
2023-03-29T06:26:13.076Z,52.21
2023-03-29T06:28:40.827Z,51.54
2023-03-29T06:31:10.400Z,53.45
2023-03-29T06:33:40.349Z,51.98
2023-03-29T06:36:16.985Z,51.18
2023-03-29T06:38:46.022Z,51.84
2023-03-29T06:41:23.856Z,49.67
2023-03-29T06:44:10.892Z,53.57
2023-03-29T06:46:50.558Z,53.80
2023-03-29T06:49:17.488Z,52.95
2023-03-29T06:52:00.650Z,48.30
2023-03-29T06:54:27.815Z,48.68
2023-03-29T06:57:04.125Z,52.27
2023-03-29T06:59:35.018Z,50.80
2023-03-29T07:02:22.947Z,49.42
2023-03-29T07:05:12.165Z,51.39
2023-03-29T07:08:00.508Z,46.51
2023-03-29T07:10:53.962Z,46.06
2023-03-29T07:13:33.246Z,46.99
2023-03-29T07:16:04.139Z,47.64
2023-03-29T07:18:51.610Z,49.16
2023-03-29T07:21:40.819Z,46.42
2023-03-29T07:24:10.255Z,46.38
2023-03-29T07:26:39.295Z,45.52
2023-03-29T07:29:07.809Z,45.08
2023-03-29T07:31:38.878Z,46.04
2023-03-29T07:34:38.574Z,46.99
2023-03-29T07:37:09.589Z,45.78
2023-03-29T07:39:38.601Z,45.87
2023-03-29T07:42:36.824Z,45.21
2023-03-29T07:45:08.891Z,43.14
2023-03-29T07:47:45.451Z,42.49
2023-03-29T07:50:13.007Z,40.23
2023-03-29T07:52:40.706Z,40.57
2023-03-29T07:55:10.025Z,43.67
2023-03-29T07:57:54.288Z,41.09
2023-03-29T08:00:22.476Z,43.14
2023-03-29T08:03:07.530Z,40.76
2023-03-29T08:05:41.204Z,42.38
2023-03-29T08:08:15.513Z,40.49
2023-03-29T08:10:50.529Z,41.04
2023-03-29T08:13:46.708Z,40.56
2023-03-29T08:16:33.120Z,42.00
2023-03-29T08:19:08.430Z,40.61
2023-03-29T08:22:01.750Z,40.19
2023-03-29T08:24:37.766Z,41.08
2023-03-29T08:27:07.355Z,40.17
2023-03-29T08:29:34.662Z,37.78
2023-03-29T08:32:02.139Z,41.53
2023-03-29T08:34:31.877Z,40.74
2023-03-29T08:37:22.143Z,42.11
2023-03-29T08:39:51.147Z,42.52
2023-03-29T08:42:47.650Z,43.09
2023-03-29T08:45:35.630Z,43.73
2023-03-29T08:48:22.610Z,38.63
2023-03-29T08:50:54.246Z,40.77
2023-03-29T08:53:31.952Z,39.76
2023-03-29T08:56:31.511Z,41.56
2023-03-29T08:59:37.761Z,43.49
2023-03-29T09:02:25.365Z,45.07
2023-03-29T09:05:08.765Z,46.55
2023-03-29T09:07:44.396Z,42.99
2023-03-29T09:10:19.163Z,42.49
2023-03-29T09:13:11.526Z,41.25
2023-03-29T09:16:06.316Z,39.83
2023-03-29T09:19:06.912Z,41.50
2023-03-29T09:21:44.168Z,41.77
2023-03-29T09:24:39.463Z,41.69
2023-03-29T09:27:27.487Z,42.22
2023-03-29T09:30:35.444Z,41.11
2023-03-29T09:33:14.701Z,40.14
2023-03-29T09:36:17.541Z,41.90
2023-03-29T09:38:51.118Z,40.57
2023-03-29T09:41:32.530Z,42.95
2023-03-29T09:44:10.936Z,35.80
2023-03-29T09:46:47.724Z,36.84
2023-03-29T09:49:21.283Z,42.53
2023-03-29T09:51:50.277Z,42.19
2023-03-29T09:54:19.590Z,41.29
2023-03-29T09:57:15.837Z,41.87
2023-03-29T09:59:46.268Z,39.40
2023-03-29T10:02:14.159Z,42.35
2023-03-29T10:04:43.025Z,36.99
2023-03-29T10:07:18.471Z,40.14
2023-03-29T10:09:52.125Z,39.47
2023-03-29T10:12:21.055Z,33.99
2023-03-29T10:14:57.609Z,38.44
2023-03-29T10:17:28.379Z,34.65
2023-03-29T10:20:04.143Z,40.02
2023-03-29T10:22:41.294Z,38.21
2023-03-29T10:25:17.669Z,38.59
2023-03-29T10:27:48.251Z,35.26
2023-03-29T10:30:24.277Z,35.98
2023-03-29T10:33:00.036Z,33.71
2023-03-29T10:35:34.942Z,33.27
2023-03-29T10:38:05.087Z,35.90
2023-03-29T10:40:35.281Z,31.19
2023-03-29T10:43:20.810Z,35.34
2023-03-29T10:45:54.584Z,31.42
2023-03-29T10:48:29.616Z,30.69
2023-03-29T10:51:02.160Z,34.70
2023-03-29T10:53:35.183Z,34.53
2023-03-29T10:56:18.189Z,33.34
2023-03-29T10:59:15.894Z,34.55
2023-03-29T11:02:15.319Z,33.93
2023-03-29T11:05:16.514Z,38.08
2023-03-29T11:08:17.503Z,32.57
2023-03-29T11:10:50.751Z,37.60
2023-03-29T11:13:52.825Z,38.05
2023-03-29T11:16:42.848Z,37.04
2023-03-29T11:19:19.115Z,35.15
2023-03-29T11:21:59.927Z,36.74
2023-03-29T11:24:48.572Z,36.96
2023-03-29T11:27:37.094Z,35.97
2023-03-29T11:30:22.048Z,29.46
2023-03-29T11:32:56.726Z,32.04
2023-03-29T11:35:36.484Z,31.20
2023-03-29T11:38:21.940Z,32.24
2023-03-29T11:41:23.458Z,34.72
2023-03-29T11:44:07.146Z,33.37
2023-03-29T11:46:39.628Z,36.02
2023-03-29T11:49:10.459Z,36.31
2023-03-29T11:52:19.268Z,35.57
2023-03-29T11:54:54.823Z,36.65
2023-03-29T11:57:28.138Z,30.67
2023-03-29T12:00:04.536Z,30.29
2023-03-29T12:02:52.123Z,29.77
2023-03-29T12:05:30.752Z,31.83
2023-03-29T12:08:01.121Z,30.39
2023-03-29T12:10:50.648Z,33.72
2023-03-29T12:13:33.773Z,33.83
2023-03-29T12:16:09.014Z,34.03
2023-03-29T12:18:42.448Z,34.44
2023-03-29T12:21:17.292Z,34.92
2023-03-29T12:23:46.093Z,33.69
2023-03-29T12:26:30.000Z,32.40
2023-03-29T12:29:26.453Z,33.88
2023-03-29T12:32:27.844Z,30.17
2023-03-29T12:35:34.471Z,32.09
2023-03-29T12:38:21.798Z,32.53
2023-03-29T12:41:17.816Z,31.89
2023-03-29T12:43:51.558Z,32.58
2023-03-29T12:46:32.239Z,31.25
2023-03-29T12:49:11.599Z,32.71
2023-03-29T12:51:42.183Z,32.41
2023-03-29T12:54:16.109Z,32.32
2023-03-29T12:56:58.533Z,32.55
2023-03-29T12:59:25.955Z,32.68
2023-03-29T13:02:14.146Z,28.05
2023-03-29T13:04:44.049Z,28.55
2023-03-29T13:07:16.165Z,31.49
2023-03-29T13:09:59.073Z,30.33
2023-03-29T13:12:27.538Z,30.81
2023-03-29T13:14:58.228Z,29.31
2023-03-29T13:18:09.720Z,29.11
2023-03-29T13:21:14.044Z,27.87
2023-03-29T13:23:57.288Z,31.57
2023-03-29T13:26:36.393Z,30.45
2023-03-29T13:29:03.708Z,30.19
2023-03-29T13:32:01.914Z,30.09
2023-03-29T13:34:44.094Z,30.88
2023-03-29T13:37:43.390Z,26.30
2023-03-29T13:40:42.215Z,27.85
2023-03-29T13:43:21.267Z,28.66
2023-03-29T13:45:57.009Z,28.40
2023-03-29T13:48:27.647Z,27.62
2023-03-29T13:51:08.277Z,26.61
2023-03-29T13:53:41.052Z,27.14
2023-03-29T13:56:15.731Z,24.33
2023-03-29T13:58:58.565Z,28.52
2023-03-29T14:01:38.257Z,25.34
2023-03-29T14:04:12.737Z,26.19
2023-03-29T14:06:42.886Z,25.88
2023-03-29T14:09:14.515Z,27.43
2023-03-29T14:11:45.396Z,24.70
2023-03-29T14:14:12.524Z,23.95
2023-03-29T14:16:41.886Z,27.54
2023-03-29T14:19:19.128Z,28.39
2023-03-29T14:21:46.547Z,27.74
2023-03-29T14:24:20.997Z,24.16
2023-03-29T14:26:48.558Z,24.73
2023-03-29T14:29:15.996Z,27.24
2023-03-29T14:31:43.348Z,26.38
2023-03-29T14:34:16.984Z,27.63
2023-03-29T14:36:46.397Z,27.04
2023-03-29T14:39:22.263Z,26.03
2023-03-29T14:41:54.185Z,26.02
2023-03-29T14:44:24.420Z,27.33
2023-03-29T14:46:51.479Z,27.29
2023-03-29T14:49:21.138Z,26.66
2023-03-29T14:51:49.465Z,25.87
2023-03-29T14:54:22.280Z,26.72
2023-03-29T14:56:51.107Z,26.71
2023-03-29T14:59:55.119Z,26.53
2023-03-29T15:02:28.441Z,26.02
2023-03-29T15:05:07.640Z,26.55
2023-03-29T15:07:37.058Z,26.02
2023-03-29T15:10:06.617Z,27.91
2023-03-29T15:12:34.577Z,25.16
2023-03-29T15:15:02.793Z,24.63
2023-03-29T15:17:50.308Z,25.87
2023-03-29T15:20:24.682Z,25.88
2023-03-29T15:23:00.242Z,24.88
2023-03-29T15:25:33.156Z,27.03
2023-03-29T15:28:01.669Z,28.06
2023-03-29T15:30:37.928Z,26.33
2023-03-29T15:33:29.145Z,27.04
2023-03-29T15:35:57.373Z,26.83
2023-03-29T15:38:33.133Z,24.56
2023-03-29T15:41:08.610Z,29.03
2023-03-29T15:43:37.882Z,28.28
2023-03-29T15:46:07.813Z,27.96
2023-03-29T15:48:37.021Z,29.14
2023-03-29T15:51:06.346Z,28.83
2023-03-29T15:53:42.740Z,29.14
2023-03-29T15:56:16.017Z,26.74
2023-03-29T15:58:43.489Z,26.70
2023-03-29T16:01:19.295Z,28.96
2023-03-29T16:03:48.031Z,26.75
2023-03-29T16:06:17.924Z,29.36
2023-03-29T16:08:49.446Z,30.63
2023-03-29T16:11:17.000Z,28.51
2023-03-29T16:13:44.129Z,29.70
2023-03-29T16:16:11.616Z,28.20
2023-03-29T16:18:38.764Z,29.42
2023-03-29T16:21:06.533Z,29.72
2023-03-29T16:23:33.547Z,29.95
2023-03-29T16:26:00.808Z,30.79
2023-03-29T16:28:28.517Z,30.32
2023-03-29T16:30:55.576Z,30.29
2023-03-29T16:33:23.015Z,29.75
2023-03-29T16:35:50.151Z,30.34
2023-03-29T16:38:17.289Z,30.56
2023-03-29T16:40:45.181Z,29.40
2023-03-29T16:43:16.479Z,29.96
2023-03-29T16:45:47.170Z,31.33
2023-03-29T16:48:19.940Z,28.89
2023-03-29T16:50:50.410Z,30.47
2023-03-29T16:53:19.836Z,28.82
2023-03-29T16:55:47.811Z,30.72
2023-03-29T16:58:15.602Z,31.62
2023-03-29T17:00:45.027Z,30.92
2023-03-29T17:03:13.589Z,30.64
2023-03-29T17:05:46.240Z,29.45
2023-03-29T17:08:13.176Z,31.69
2023-03-29T17:10:40.920Z,30.93
2023-03-29T17:13:08.269Z,30.97
2023-03-29T17:15:39.420Z,31.81
2023-03-29T17:18:07.308Z,31.02
2023-03-29T17:20:40.498Z,31.29
2023-03-29T17:23:08.956Z,31.67
2023-03-29T17:25:36.357Z,29.71
2023-03-29T17:28:03.648Z,31.70
2023-03-29T17:30:31.044Z,32.73
2023-03-29T17:32:58.138Z,32.94
2023-03-29T17:35:26.493Z,30.98
2023-03-29T17:37:54.881Z,31.13
2023-03-29T17:40:22.663Z,32.78
2023-03-29T17:42:50.462Z,32.41
2023-03-29T17:45:17.568Z,33.34
2023-03-29T17:47:45.102Z,31.25
2023-03-29T17:50:13.215Z,31.84
2023-03-29T17:52:40.557Z,32.49
2023-03-29T17:55:13.758Z,31.97
2023-03-29T17:57:41.437Z,33.86
2023-03-29T18:00:12.295Z,31.89
2023-03-29T18:02:40.428Z,32.45
2023-03-29T18:05:09.531Z,32.51
2023-03-29T18:07:37.510Z,34.44
2023-03-29T18:10:14.491Z,34.23
2023-03-29T18:12:41.775Z,31.78
2023-03-29T18:15:09.311Z,32.29
2023-03-29T18:17:36.457Z,30.66
2023-03-29T18:20:10.191Z,31.61
2023-03-29T18:22:41.921Z,33.60
2023-03-29T18:25:10.213Z,33.02
2023-03-29T18:27:38.594Z,31.59
2023-03-29T18:30:07.548Z,33.37
2023-03-29T18:32:34.570Z,32.88
2023-03-29T18:35:02.852Z,34.62
2023-03-29T18:37:29.798Z,34.34
2023-03-29T18:39:57.035Z,34.46
2023-03-29T18:42:24.097Z,32.24
2023-03-29T18:44:51.447Z,33.85
2023-03-29T18:47:18.510Z,33.47
2023-03-29T18:49:45.692Z,33.99
2023-03-29T18:52:12.815Z,34.87
2023-03-29T18:54:39.845Z,35.71
2023-03-29T18:57:07.069Z,35.77
2023-03-29T18:59:36.678Z,36.04
2023-03-29T19:02:04.121Z,34.90
2023-03-29T19:04:31.118Z,35.76
2023-03-29T19:06:59.936Z,35.99
2023-03-29T19:09:28.123Z,36.11
2023-03-29T19:11:55.435Z,34.81
2023-03-29T19:14:25.687Z,35.67
2023-03-29T19:16:53.174Z,36.70
2023-03-29T19:19:22.184Z,36.90
2023-03-29T19:21:49.667Z,37.25
2023-03-29T19:24:17.218Z,37.18
2023-03-29T19:26:44.861Z,37.48
2023-03-29T19:29:11.861Z,37.48
2023-03-29T19:31:39.068Z,37.35
2023-03-29T19:34:07.100Z,37.15
2023-03-29T19:36:34.212Z,37.16
2023-03-29T19:39:01.330Z,36.55
2023-03-29T19:41:28.820Z,36.60
2023-03-29T19:43:55.871Z,36.24
2023-03-29T19:46:23.333Z,37.00
2023-03-29T19:48:51.918Z,37.16
2023-03-29T19:51:19.695Z,37.59
2023-03-29T19:53:47.357Z,36.89
2023-03-29T19:56:16.020Z,37.41
2023-03-29T19:58:43.252Z,37.38
2023-03-29T20:01:10.337Z,37.48
2023-03-29T20:03:37.333Z,37.06
2023-03-29T20:06:08.402Z,37.49
2023-03-29T20:08:38.945Z,37.65
2023-03-29T20:11:10.560Z,37.61
2023-03-29T20:13:46.624Z,37.17
2023-03-29T20:16:16.773Z,37.06
2023-03-29T20:18:45.095Z,37.33
2023-03-29T20:21:18.404Z,37.16
2023-03-29T20:23:45.680Z,36.72
2023-03-29T20:26:12.643Z,37.38
2023-03-29T20:28:39.667Z,36.06
2023-03-29T20:31:10.895Z,36.20
2023-03-29T20:33:39.228Z,37.12
2023-03-29T20:36:06.817Z,38.18
2023-03-29T20:38:35.537Z,37.38
2023-03-29T20:41:04.788Z,38.56
2023-03-29T20:43:37.787Z,38.68
2023-03-29T20:46:14.486Z,38.82
2023-03-29T20:48:54.020Z,39.14
2023-03-29T20:51:22.609Z,39.74
2023-03-29T20:53:50.789Z,39.56
2023-03-29T20:56:19.171Z,39.46
2023-03-29T20:58:46.301Z,39.28
2023-03-29T21:01:14.599Z,39.91
2023-03-29T21:03:43.435Z,39.42
2023-03-29T21:06:15.124Z,39.88
2023-03-29T21:08:45.546Z,38.88
2023-03-29T21:11:13.739Z,38.67
2023-03-29T21:13:41.651Z,38.50
2023-03-29T21:16:09.035Z,38.81
2023-03-29T21:18:37.178Z,38.88
2023-03-29T21:21:08.197Z,39.33
2023-03-29T21:23:38.367Z,40.35
2023-03-29T21:26:09.665Z,40.15
2023-03-29T21:28:37.761Z,40.32
2023-03-29T21:31:10.755Z,39.43
2023-03-29T21:33:37.826Z,40.03
2023-03-29T21:36:10.993Z,40.10
2023-03-29T21:38:37.961Z,40.78
2023-03-29T21:41:05.446Z,41.45
2023-03-29T21:43:32.744Z,41.25
2023-03-29T21:45:59.728Z,41.32
2023-03-29T21:48:26.823Z,40.75
2023-03-29T21:50:53.864Z,40.77
2023-03-29T21:53:21.018Z,41.37
2023-03-29T21:55:52.099Z,40.92
2023-03-29T21:58:19.300Z,41.23
2023-03-29T22:00:47.691Z,41.23
2023-03-29T22:03:16.009Z,41.36
2023-03-29T22:05:44.509Z,41.03
2023-03-29T22:08:11.913Z,40.68
2023-03-29T22:10:41.465Z,41.47
2023-03-29T22:13:09.422Z,41.41
2023-03-29T22:15:37.178Z,42.00
2023-03-29T22:18:04.404Z,42.81
2023-03-29T22:20:35.780Z,42.86
2023-03-29T22:23:03.486Z,42.62
2023-03-29T22:25:30.696Z,42.74
2023-03-29T22:27:58.423Z,43.13
2023-03-29T22:30:25.551Z,43.40
2023-03-29T22:32:52.589Z,43.26
2023-03-29T22:35:19.595Z,40.76
2023-03-29T22:37:46.615Z,42.18
2023-03-29T22:40:14.175Z,42.20
2023-03-29T22:42:41.341Z,42.25
2023-03-29T22:45:09.129Z,43.08
2023-03-29T22:47:36.258Z,44.17
2023-03-29T22:50:03.680Z,43.83
2023-03-29T22:52:30.810Z,43.03
2023-03-29T22:54:57.804Z,43.29
2023-03-29T22:57:24.746Z,44.40
2023-03-29T22:59:53.136Z,44.48
2023-03-29T23:02:20.133Z,44.51
2023-03-29T23:04:47.662Z,44.73
2023-03-29T23:07:14.850Z,43.94
2023-03-29T23:09:42.383Z,44.06
2023-03-29T23:12:14.541Z,43.96
2023-03-29T23:14:42.917Z,44.28
2023-03-29T23:17:10.413Z,44.42
2023-03-29T23:19:38.254Z,43.83
2023-03-29T23:22:05.236Z,44.15
2023-03-29T23:24:32.566Z,42.77
2023-03-29T23:27:01.243Z,42.50
2023-03-29T23:29:28.594Z,42.66
2023-03-29T23:31:56.951Z,42.56
2023-03-29T23:34:24.093Z,42.66
2023-03-29T23:36:51.118Z,43.50
2023-03-29T23:39:24.061Z,44.18
2023-03-29T23:41:51.142Z,44.44
2023-03-29T23:44:18.136Z,42.00
2023-03-29T23:46:45.124Z,40.98
2023-03-29T23:49:12.390Z,40.79
2023-03-29T23:51:39.736Z,42.70
2023-03-29T23:54:07.425Z,42.20
2023-03-29T23:56:34.625Z,42.15
2023-03-29T23:59:01.703Z,42.09
